Time;durP1;ratioP1;P1;durP2;ratioP2;P2;SDS_P1;SDS_P2;PMS_P1;PMS_P2;Temp;Humidity;BMP_temperature;BMP_pressure;BME280_temperature;BME280_humidity;BME280_pressure;Samples;Min_cycle;Max_cycle;Signal;HPM_P1;HPM_P2
2023/08/15 00:02:19;;;;;;;6.37;4.83;;;;;;;;;;4891492;29;20449;-71
2023/08/15 00:04:45;;;;;;;5.07;4.50;;;;;;;;;;4893203;28;20189;-70
2023/08/15 00:07:11;;;;;;;5.60;4.23;;;;;;;;;;4892011;29;20815;-69
2023/08/15 00:09:37;;;;;;;5.30;4.80;;;;;;;;;;4893989;28;20653;-69
2023/08/15 00:12:03;;;;;;;4.33;4.13;;;;;;;;;;4893932;28;20449;-69
2023/08/15 00:14:29;;;;;;;4.40;4.30;;;;;;;;;;4893298;28;20271;-70
2023/08/15 00:16:55;;;;;;;4.93;4.73;;;;;;;;;;4894109;29;20473;-70
2023/08/15 00:19:21;;;;;;;5.00;4.50;;;;;;;;;;4892933;29;20492;-68
2023/08/15 00:21:47;;;;;;;4.73;4.43;;;;;;;;;;4893753;29;20532;-71
2023/08/15 00:24:12;;;;;;;4.93;4.57;;;;;;;;;;4893562;28;20225;-71
2023/08/15 00:26:38;;;;;;;7.73;6.17;;;;;;;;;;4893784;29;20851;-70
2023/08/15 00:29:04;;;;;;;5.00;4.60;;;;;;;;;;4894389;28;20453;-70
2023/08/15 00:31:30;;;;;;;4.87;4.20;;;;;;;;;;4892325;28;20450;-68
2023/08/15 00:33:56;;;;;;;5.53;4.40;;;;;;;;;;4892155;28;20229;-70
2023/08/15 00:36:22;;;;;;;11.93;5.20;;;;;;;;;;4893384;28;20480;-71
2023/08/15 00:38:48;;;;;;;6.20;4.80;;;;;;;;;;4894134;28;20260;-69
2023/08/15 00:41:14;;;;;;;6.63;4.60;;;;;;;;;;4893135;29;20434;-67
2023/08/15 00:43:40;;;;;;;5.47;4.73;;;;;;;;;;4892609;28;20192;-70
2023/08/15 00:46:06;;;;;;;5.03;4.60;;;;;;;;;;4893466;29;20449;-68
2023/08/15 00:48:33;;;;;;;7.10;4.87;;;;;;;;;;4893805;28;20539;-69
2023/08/15 00:51:01;;;;;;;4.40;3.50;;;;;;;;;;4893285;28;20453;-72
2023/08/15 00:53:28;;;;;;;4.10;3.80;;;;;;;;;;4891479;28;21984;-70
2023/08/15 00:55:56;;;;;;;27.13;4.90;;;;;;;;;;4893655;28;20437;-68
2023/08/15 00:58:22;;;;;;;3.73;3.53;;;;;;;;;;4893480;28;20429;-68
2023/08/15 01:00:48;;;;;;;4.20;4.00;;;;;;;;;;4893543;28;20453;-70
2023/08/15 01:03:14;;;;;;;6.00;4.67;;;;;;;;;;4894235;28;20740;-69
2023/08/15 01:05:42;;;;;;;5.23;4.80;;;;;;;;;;4893305;29;20953;-68
2023/08/15 01:08:08;;;;;;;7.13;5.53;;;;;;;;;;4893053;29;20449;-68
2023/08/15 01:10:34;;;;;;;4.30;4.03;;;;;;;;;;4892882;28;20445;-73
2023/08/15 01:13:09;;;;;;;4.17;3.97;;;;;;;;;;4892449;28;20430;-69
2023/08/15 01:15:37;;;;;;;4.70;3.90;;;;;;;;;;4892183;29;20448;-70
2023/08/15 01:18:04;;;;;;;4.70;4.50;;;;;;;;;;4893423;29;20492;-72
2023/08/15 01:20:32;;;;;;;6.43;4.10;;;;;;;;;;4893216;29;20448;-68
2023/08/15 01:23:00;;;;;;;7.67;4.40;;;;;;;;;;4892587;28;20984;-68
2023/08/15 01:25:26;;;;;;;4.70;4.40;;;;;;;;;;4892559;29;20813;-72
2023/08/15 01:27:52;;;;;;;6.83;4.60;;;;;;;;;;4893264;28;20426;-68
2023/08/15 01:30:20;;;;;;;6.00;5.60;;;;;;;;;;4893239;29;21972;-68
2023/08/15 01:32:46;;;;;;;2.97;2.97;;;;;;;;;;4892634;28;20445;-68
2023/08/15 01:35:13;;;;;;;5.53;4.63;;;;;;;;;;4892763;29;20508;-70
2023/08/15 01:37:41;;;;;;;2.10;2.10;;;;;;;;;;4893255;28;20448;-70
2023/08/15 01:40:09;;;;;;;4.27;3.87;;;;;;;;;;4892182;28;20437;-70
2023/08/15 01:42:36;;;;;;;3.77;3.23;;;;;;;;;;4892536;29;20426;-71
2023/08/15 01:45:03;;;;;;;4.40;4.00;;;;;;;;;;4892820;28;20430;-69
2023/08/15 01:47:31;;;;;;;5.10;4.60;;;;;;;;;;4892878;28;21667;-69
2023/08/15 01:49:57;;;;;;;5.00;4.50;;;;;;;;;;4892851;28;20867;-68
2023/08/15 01:52:23;;;;;;;7.73;4.83;;;;;;;;;;4892680;28;20430;-67
2023/08/15 01:54:48;;;;;;;5.50;4.17;;;;;;;;;;4892816;28;20225;-68
2023/08/15 01:57:14;;;;;;;4.03;3.77;;;;;;;;;;4892674;28;20193;-69
2023/08/15 01:59:43;;;;;;;7.00;4.30;;;;;;;;;;4892028;28;20961;-68
2023/08/15 02:02:09;;;;;;;7.60;4.53;;;;;;;;;;4890826;28;20201;-70
2023/08/15 02:04:35;;;;;;;5.40;4.50;;;;;;;;;;4892778;28;20425;-71
2023/08/15 02:07:01;;;;;;;6.50;4.50;;;;;;;;;;4892866;28;20277;-70
2023/08/15 02:09:27;;;;;;;4.63;4.37;;;;;;;;;;4890906;28;20472;-69
2023/08/15 02:11:53;;;;;;;5.03;4.10;;;;;;;;;;4892592;28;20197;-69
2023/08/15 02:14:19;;;;;;;4.80;4.50;;;;;;;;;;4891583;28;20898;-70
2023/08/15 02:16:45;;;;;;;5.03;4.30;;;;;;;;;;4891501;28;20650;-69
2023/08/15 02:19:12;;;;;;;4.07;3.87;;;;;;;;;;4892017;28;20481;-69
2023/08/15 02:21:39;;;;;;;4.70;4.40;;;;;;;;;;4891784;28;20461;-69
2023/08/15 02:24:05;;;;;;;8.40;3.87;;;;;;;;;;4891933;29;20892;-69
2023/08/15 02:26:31;;;;;;;8.43;3.70;;;;;;;;;;4891770;28;20204;-70
2023/08/15 02:28:57;;;;;;;3.60;3.40;;;;;;;;;;4892109;29;20469;-71
2023/08/15 02:31:25;;;;;;;4.10;3.80;;;;;;;;;;4891993;28;20453;-72
2023/08/15 02:33:51;;;;;;;3.97;3.77;;;;;;;;;;4892152;28;20491;-69
2023/08/15 02:36:17;;;;;;;6.80;4.00;;;;;;;;;;4892253;29;20417;-70
2023/08/15 02:38:43;;;;;;;7.80;4.90;;;;;;;;;;4891881;28;20228;-71
2023/08/15 02:41:09;;;;;;;15.20;4.60;;;;;;;;;;4890324;28;20201;-73
2023/08/15 02:43:35;;;;;;;4.23;3.83;;;;;;;;;;4891824;29;20449;-72
2023/08/15 02:46:01;;;;;;;4.73;4.30;;;;;;;;;;4891518;28;20200;-68
2023/08/15 02:48:27;;;;;;;5.10;4.60;;;;;;;;;;4891981;29;20236;-71
2023/08/15 02:50:53;;;;;;;7.00;4.60;;;;;;;;;;4891671;28;20452;-71
2023/08/15 02:53:19;;;;;;;5.33;4.57;;;;;;;;;;4891721;29;20260;-71
2023/08/15 02:55:49;;;;;;;10.93;4.53;;;;;;;;;;4891434;28;20814;-69
2023/08/15 02:58:15;;;;;;;4.73;4.37;;;;;;;;;;4890673;28;20433;-71
2023/08/15 03:00:41;;;;;;;7.83;4.57;;;;;;;;;;4891304;28;20468;-70
2023/08/15 03:03:07;;;;;;;9.57;4.67;;;;;;;;;;4891812;28;20194;-68
2023/08/15 03:05:33;;;;;;;6.13;3.70;;;;;;;;;;4892081;29;20197;-69
2023/08/15 03:07:59;;;;;;;4.30;4.00;;;;;;;;;;4891017;28;20466;-68
2023/08/15 03:10:25;;;;;;;7.20;3.87;;;;;;;;;;4890562;29;20193;-71
2023/08/15 03:12:51;;;;;;;4.43;4.13;;;;;;;;;;4891784;28;20922;-68
2023/08/15 03:15:17;;;;;;;5.23;4.93;;;;;;;;;;4891754;28;20705;-69
2023/08/15 03:17:43;;;;;;;6.63;4.43;;;;;;;;;;4891205;28;20485;-72
2023/08/15 03:20:09;;;;;;;6.77;4.70;;;;;;;;;;4891496;29;20449;-71
2023/08/15 03:22:35;;;;;;;4.80;4.17;;;;;;;;;;4891744;28;20952;-71
2023/08/15 03:25:01;;;;;;;8.60;5.50;;;;;;;;;;4891711;29;20426;-70
2023/08/15 03:27:27;;;;;;;5.07;4.43;;;;;;;;;;4891114;28;20429;-73
2023/08/15 03:29:53;;;;;;;5.13;4.30;;;;;;;;;;4890480;28;20550;-72
2023/08/15 03:32:19;;;;;;;6.37;3.77;;;;;;;;;;4888592;28;20464;-69
2023/08/15 03:34:45;;;;;;;4.43;4.13;;;;;;;;;;4890797;28;20512;-73
2023/08/15 03:37:11;;;;;;;4.03;3.90;;;;;;;;;;4895165;28;20185;-72
2023/08/15 03:39:37;;;;;;;8.83;4.20;;;;;;;;;;4894036;28;20271;-72
2023/08/15 03:42:03;;;;;;;14.30;4.47;;;;;;;;;;4895007;28;20190;-72
2023/08/15 03:44:29;;;;;;;4.03;3.67;;;;;;;;;;4894201;28;20472;-73
2023/08/15 03:46:55;;;;;;;9.63;5.30;;;;;;;;;;4894703;29;20929;-71
2023/08/15 03:49:21;;;;;;;4.40;4.10;;;;;;;;;;4893452;28;20777;-68
2023/08/15 03:51:47;;;;;;;4.57;4.37;;;;;;;;;;4892483;28;20548;-71
2023/08/15 03:54:13;;;;;;;6.73;4.47;;;;;;;;;;4892873;29;21037;-72
2023/08/15 03:56:39;;;;;;;6.83;4.37;;;;;;;;;;4894048;28;20516;-72
2023/08/15 03:59:05;;;;;;;3.47;3.17;;;;;;;;;;4893304;29;20197;-70
2023/08/15 04:01:31;;;;;;;5.57;5.00;;;;;;;;;;4894192;28;20186;-72
2023/08/15 04:03:57;;;;;;;9.00;6.93;;;;;;;;;;4893765;29;20458;-70
2023/08/15 04:06:23;;;;;;;6.53;5.03;;;;;;;;;;4893576;29;20464;-69
2023/08/15 04:08:49;;;;;;;7.23;6.10;;;;;;;;;;4893622;28;20808;-67
2023/08/15 04:11:15;;;;;;;6.67;6.27;;;;;;;;;;4891494;28;20487;-72
2023/08/15 04:13:41;;;;;;;8.63;6.03;;;;;;;;;;4892279;28;20217;-71
2023/08/15 04:16:07;;;;;;;11.40;4.77;;;;;;;;;;4895115;28;20186;-68
2023/08/15 04:18:35;;;;;;;4.53;4.03;;;;;;;;;;4894069;29;20237;-72
2023/08/15 04:21:01;;;;;;;7.27;4.93;;;;;;;;;;4892892;28;20448;-72
2023/08/15 04:23:27;;;;;;;7.23;5.30;;;;;;;;;;4893699;28;20449;-72
2023/08/15 04:25:54;;;;;;;4.67;4.47;;;;;;;;;;4893467;28;20483;-71
2023/08/15 04:28:20;;;;;;;5.07;4.77;;;;;;;;;;4892173;28;20445;-71
2023/08/15 04:30:46;;;;;;;8.60;4.83;;;;;;;;;;4889699;28;20457;-71
2023/08/15 04:33:12;;;;;;;5.73;4.97;;;;;;;;;;4891818;28;20604;-70
2023/08/15 04:35:39;;;;;;;9.43;5.43;;;;;;;;;;4890410;29;20224;-70
2023/08/15 04:38:05;;;;;;;5.10;4.77;;;;;;;;;;4893077;28;20436;-71
2023/08/15 04:40:37;;;;;;;7.30;4.90;;;;;;;;;;4895256;28;20475;-71
2023/08/15 04:43:03;;;;;;;5.53;5.23;;;;;;;;;;4891218;28;20446;-71
2023/08/15 04:45:29;;;;;;;4.80;4.57;;;;;;;;;;4893112;29;21194;-70
2023/08/15 04:47:55;;;;;;;9.50;4.97;;;;;;;;;;4890646;28;21023;-71
2023/08/15 04:50:21;;;;;;;4.77;4.57;;;;;;;;;;4895240;28;20197;-71
2023/08/15 04:52:47;;;;;;;10.00;4.57;;;;;;;;;;4892653;29;20931;-70
2023/08/15 04:55:13;;;;;;;4.73;3.70;;;;;;;;;;4891142;28;20501;-71
2023/08/15 04:57:39;;;;;;;6.73;4.60;;;;;;;;;;4892973;28;20269;-71
2023/08/15 05:00:08;;;;;;;4.67;4.43;;;;;;;;;;4891669;28;20201;-71
2023/08/15 05:02:35;;;;;;;4.23;4.10;;;;;;;;;;4892420;28;20425;-72
2023/08/15 05:05:01;;;;;;;7.87;4.70;;;;;;;;;;4890931;28;20454;-72
2023/08/15 05:07:27;;;;;;;5.27;4.17;;;;;;;;;;4892720;29;20434;-72
2023/08/15 05:09:53;;;;;;;5.67;4.60;;;;;;;;;;4892514;28;20961;-71
2023/08/15 05:12:19;;;;;;;4.67;4.27;;;;;;;;;;4892330;29;20426;-71
2023/08/15 05:14:45;;;;;;;6.37;4.47;;;;;;;;;;4892365;28;20228;-71
2023/08/15 05:17:11;;;;;;;8.13;5.43;;;;;;;;;;4892665;28;20185;-71
2023/08/15 05:19:38;;;;;;;5.70;4.67;;;;;;;;;;4886833;28;20477;-72
2023/08/15 05:22:03;;;;;;;5.20;4.80;;;;;;;;;;4890686;29;21080;-71
2023/08/15 05:24:29;;;;;;;6.07;4.27;;;;;;;;;;4890869;28;20442;-71
2023/08/15 05:26:55;;;;;;;8.13;4.60;;;;;;;;;;4892350;28;20193;-71
2023/08/15 05:29:21;;;;;;;9.80;4.87;;;;;;;;;;4889493;28;20646;-71
2023/08/15 05:31:47;;;;;;;5.67;4.57;;;;;;;;;;4891052;28;20446;-71
2023/08/15 05:34:13;;;;;;;7.90;5.33;;;;;;;;;;4891618;28;20923;-72
2023/08/15 05:36:39;;;;;;;6.30;5.80;;;;;;;;;;4891263;28;20473;-71
2023/08/15 05:39:05;;;;;;;8.93;5.80;;;;;;;;;;4892707;29;20430;-71
2023/08/15 05:41:31;;;;;;;4.57;4.27;;;;;;;;;;4891027;28;20434;-71
2023/08/15 05:43:57;;;;;;;10.13;4.37;;;;;;;;;;4892907;28;20444;-71
2023/08/15 05:46:23;;;;;;;11.73;4.97;;;;;;;;;;4893051;28;20437;-71
2023/08/15 05:48:49;;;;;;;12.07;5.00;;;;;;;;;;4890958;28;20220;-71
2023/08/15 05:51:15;;;;;;;7.63;5.60;;;;;;;;;;4896379;28;20442;-71
2023/08/15 05:53:41;;;;;;;4.97;4.53;;;;;;;;;;4892466;28;20732;-71
2023/08/15 05:56:07;;;;;;;7.07;6.00;;;;;;;;;;4892874;29;20491;-71
2023/08/15 05:58:33;;;;;;;11.53;5.93;;;;;;;;;;4891544;28;20421;-71
2023/08/15 06:00:59;;;;;;;11.83;5.07;;;;;;;;;;4891263;29;20442;-71
2023/08/15 06:03:25;;;;;;;10.37;4.87;;;;;;;;;;4892347;28;20186;-71
2023/08/15 06:05:51;;;;;;;6.90;5.57;;;;;;;;;;4892250;28;20437;-72
2023/08/15 06:08:17;;;;;;;8.43;5.47;;;;;;;;;;4891194;28;20492;-71
2023/08/15 06:10:43;;;;;;;5.40;5.00;;;;;;;;;;4891895;29;20430;-71
2023/08/15 06:13:09;;;;;;;6.60;5.10;;;;;;;;;;4891652;28;20936;-71
2023/08/15 06:15:35;;;;;;;5.00;4.60;;;;;;;;;;4892315;29;20497;-71
2023/08/15 06:18:01;;;;;;;5.57;4.80;;;;;;;;;;4891629;28;20237;-72
2023/08/15 06:20:27;;;;;;;5.67;5.17;;;;;;;;;;4891528;28;20973;-71
2023/08/15 06:22:53;;;;;;;4.80;4.37;;;;;;;;;;4890938;28;20189;-71
2023/08/15 06:25:19;;;;;;;4.67;4.27;;;;;;;;;;4891514;28;20433;-70
2023/08/15 06:27:45;;;;;;;5.40;4.40;;;;;;;;;;4892528;28;20313;-72
2023/08/15 06:30:11;;;;;;;6.73;6.33;;;;;;;;;;4892748;28;20433;-71
2023/08/15 06:32:37;;;;;;;8.40;4.73;;;;;;;;;;4889298;28;20475;-70
2023/08/15 06:35:05;;;;;;;4.70;4.30;;;;;;;;;;4890774;28;21009;-71
2023/08/15 06:37:31;;;;;;;4.13;3.83;;;;;;;;;;4891303;28;20496;-70
2023/08/15 06:39:57;;;;;;;10.73;4.93;;;;;;;;;;4891861;28;20429;-70
2023/08/15 06:42:23;;;;;;;6.47;5.03;;;;;;;;;;4890662;29;20434;-71
2023/08/15 06:44:49;;;;;;;5.33;4.50;;;;;;;;;;4889734;29;20873;-70
2023/08/15 06:47:15;;;;;;;4.90;4.57;;;;;;;;;;4890786;28;20477;-70
2023/08/15 06:49:41;;;;;;;7.80;4.20;;;;;;;;;;4889110;28;20477;-70
2023/08/15 06:52:07;;;;;;;7.67;4.00;;;;;;;;;;4890705;28;20453;-70
2023/08/15 06:54:33;;;;;;;8.83;4.73;;;;;;;;;;4890120;29;20870;-70
2023/08/15 06:56:59;;;;;;;7.37;4.90;;;;;;;;;;4890265;28;20520;-71
2023/08/15 06:59:25;;;;;;;5.20;4.70;;;;;;;;;;4889445;29;20536;-71
2023/08/15 07:01:53;;;;;;;8.17;4.57;;;;;;;;;;4890499;28;20453;-70
2023/08/15 07:04:19;;;;;;;6.38;4.72;;;;;;;;;;4888913;28;20751;-67
2023/08/15 07:06:45;;;;;;;4.53;4.10;;;;;;;;;;4890267;28;20669;-69
2023/08/15 07:09:11;;;;;;;4.33;4.07;;;;;;;;;;4889067;28;20446;-70
2023/08/15 07:11:37;;;;;;;5.30;3.70;;;;;;;;;;4892208;28;20508;-73
2023/08/15 07:14:03;;;;;;;7.53;4.07;;;;;;;;;;4892176;28;20492;-69
2023/08/15 07:16:29;;;;;;;10.83;3.93;;;;;;;;;;4906106;28;20446;-70
2023/08/15 07:18:55;;;;;;;5.23;3.83;;;;;;;;;;4893932;28;20466;-69
2023/08/15 07:21:21;;;;;;;5.33;4.10;;;;;;;;;;4892430;28;20442;-68
2023/08/15 07:23:47;;;;;;;4.60;4.20;;;;;;;;;;4892617;28;20194;-68
2023/08/15 07:26:13;;;;;;;16.97;4.27;;;;;;;;;;4893121;28;20213;-67
2023/08/15 07:28:39;;;;;;;3.73;3.53;;;;;;;;;;4892976;28;20473;-67
2023/08/15 07:31:05;;;;;;;3.67;3.47;;;;;;;;;;4893620;28;20500;-68
2023/08/15 07:33:31;;;;;;;4.80;3.50;;;;;;;;;;4893004;28;20437;-68
2023/08/15 07:35:57;;;;;;;4.63;2.70;;;;;;;;;;4893532;29;20489;-67
2023/08/15 07:38:23;;;;;;;4.30;3.00;;;;;;;;;;4893447;28;20426;-72
2023/08/15 07:40:49;;;;;;;4.83;3.27;;;;;;;;;;4892802;28;20449;-67
2023/08/15 07:43:16;;;;;;;9.03;3.47;;;;;;;;;;4892759;28;20430;-68
2023/08/15 07:45:42;;;;;;;3.03;2.97;;;;;;;;;;4893516;29;20434;-68
2023/08/15 07:48:07;;;;;;;3.53;2.60;;;;;;;;;;4893232;28;20500;-67
2023/08/15 07:50:34;;;;;;;4.97;2.53;;;;;;;;;;4892700;29;20533;-67
2023/08/15 07:53:00;;;;;;;2.80;1.60;;;;;;;;;;4892632;29;20449;-67
2023/08/15 07:55:27;;;;;;;3.20;2.40;;;;;;;;;;4893108;28;20501;-68
2023/08/15 07:57:53;;;;;;;3.47;1.87;;;;;;;;;;4893363;28;20434;-68
2023/08/15 08:00:19;;;;;;;1.60;1.60;;;;;;;;;;4892447;29;20448;-70
2023/08/15 08:02:45;;;;;;;5.30;2.60;;;;;;;;;;4892224;28;20500;-68
2023/08/15 08:05:15;;;;;;;1.93;1.93;;;;;;;;;;4893039;28;20804;-68
2023/08/15 08:07:42;;;;;;;2.03;1.80;;;;;;;;;;4891724;28;20519;-67
2023/08/15 08:10:08;;;;;;;4.93;1.50;;;;;;;;;;4889893;29;20489;-68
2023/08/15 08:12:34;;;;;;;1.83;1.83;;;;;;;;;;4893771;28;20449;-68
2023/08/15 08:15:00;;;;;;;5.07;1.80;;;;;;;;;;4893965;28;20595;-69
2023/08/15 08:17:26;;;;;;;1.50;1.40;;;;;;;;;;4890703;28;20946;-70
2023/08/15 08:19:52;;;;;;;2.80;1.80;;;;;;;;;;4892825;29;20469;-68
2023/08/15 08:22:18;;;;;;;2.93;1.43;;;;;;;;;;4892225;29;20441;-69
2023/08/15 08:24:44;;;;;;;5.03;1.70;;;;;;;;;;4893615;28;20446;-67
2023/08/15 08:27:10;;;;;;;1.47;1.37;;;;;;;;;;4894269;29;20926;-69
2023/08/15 08:29:36;;;;;;;1.40;1.40;;;;;;;;;;4891578;28;20485;-70
2023/08/15 08:32:03;;;;;;;9.53;4.80;;;;;;;;;;4892614;28;20432;-67
2023/08/15 08:34:29;;;;;;;1.57;1.47;;;;;;;;;;4893850;28;20524;-67
2023/08/15 08:36:55;;;;;;;1.50;1.50;;;;;;;;;;4894964;28;20496;-68
2023/08/15 08:39:21;;;;;;;1.83;1.37;;;;;;;;;;4890587;28;20788;-67
2023/08/15 08:41:47;;;;;;;2.73;1.13;;;;;;;;;;4892939;28;20551;-67
2023/08/15 08:44:13;;;;;;;2.30;1.80;;;;;;;;;;4891245;28;20461;-67
2023/08/15 08:46:40;;;;;;;1.47;1.30;;;;;;;;;;4894089;28;20441;-67
2023/08/15 08:49:06;;;;;;;1.77;1.60;;;;;;;;;;4893445;28;20544;-76
2023/08/15 08:51:33;;;;;;;4.20;1.40;;;;;;;;;;4892891;29;20523;-76
2023/08/15 08:53:59;;;;;;;1.27;1.27;;;;;;;;;;4893330;28;20481;-75
2023/08/15 08:56:26;;;;;;;4.83;1.20;;;;;;;;;;4892124;29;20535;-76
2023/08/15 08:59:00;;;;;;;2.63;1.50;;;;;;;;;;4893246;29;20433;-76
2023/08/15 09:01:28;;;;;;;1.33;1.23;;;;;;;;;;4892309;28;20528;-76
2023/08/15 09:03:55;;;;;;;1.30;1.30;;;;;;;;;;4893013;28;20559;-75
2023/08/15 09:06:21;;;;;;;2.10;1.60;;;;;;;;;;4891856;28;20574;-75
2023/08/15 09:08:47;;;;;;;1.70;1.60;;;;;;;;;;4891656;28;20464;-76
2023/08/15 09:11:13;;;;;;;1.90;1.80;;;;;;;;;;4891861;28;20799;-75
2023/08/15 09:13:48;;;;;;;2.53;1.53;;;;;;;;;;4892518;29;20201;-75
2023/08/15 09:16:15;;;;;;;3.13;1.50;;;;;;;;;;4889897;28;20861;-75
2023/08/15 09:18:41;;;;;;;1.27;1.27;;;;;;;;;;4891595;28;20489;-77
2023/08/15 09:21:08;;;;;;;7.63;3.10;;;;;;;;;;4893687;29;20438;-74
2023/08/15 09:23:34;;;;;;;4.93;1.63;;;;;;;;;;4892437;28;20426;-75
2023/08/15 09:26:12;;;;;;;2.17;1.57;;;;;;;;;;4892846;28;20441;-76
2023/08/15 09:28:39;;;;;;;1.63;1.47;;;;;;;;;;4894592;28;20622;-72
2023/08/15 09:31:05;;;;;;;11.47;2.33;;;;;;;;;;4890266;28;20540;-74
2023/08/15 09:33:31;;;;;;;2.30;1.47;;;;;;;;;;4890491;28;20584;-73
2023/08/15 09:35:57;;;;;;;4.37;1.63;;;;;;;;;;4890259;28;20231;-74
2023/08/15 09:38:23;;;;;;;7.00;1.97;;;;;;;;;;4891124;28;20200;-75
2023/08/15 09:40:50;;;;;;;2.60;1.70;;;;;;;;;;4891740;28;20434;-74
2023/08/15 09:43:16;;;;;;;1.43;1.40;;;;;;;;;;4892078;28;20445;-71
2023/08/15 09:45:42;;;;;;;1.50;1.40;;;;;;;;;;4893037;28;20950;-72
2023/08/15 09:48:09;;;;;;;1.53;1.43;;;;;;;;;;4893277;29;20438;-75
2023/08/15 09:50:35;;;;;;;1.70;1.60;;;;;;;;;;4892906;28;20426;-76
2023/08/15 09:53:01;;;;;;;3.03;1.57;;;;;;;;;;4892537;29;20917;-70
2023/08/15 09:55:28;;;;;;;1.90;1.37;;;;;;;;;;4891595;28;20489;-73
2023/08/15 09:57:54;;;;;;;1.90;1.80;;;;;;;;;;4892935;28;20438;-73
2023/08/15 10:00:20;;;;;;;3.07;2.00;;;;;;;;;;4892819;28;20528;-73
2023/08/15 10:02:46;;;;;;;1.13;1.13;;;;;;;;;;4892088;28;20434;-73
2023/08/15 10:05:16;;;;;;;7.40;1.73;;;;;;;;;;4892830;29;20441;-68
2023/08/15 10:07:43;;;;;;;1.50;1.50;;;;;;;;;;4892818;28;20186;-67
2023/08/15 10:10:10;;;;;;;6.23;0.90;;;;;;;;;;4892671;28;20981;-68
2023/08/15 10:12:37;;;;;;;6.73;1.57;;;;;;;;;;4892036;28;20957;-70
2023/08/15 10:15:03;;;;;;;8.03;2.10;;;;;;;;;;4892241;28;20485;-67
2023/08/15 10:17:29;;;;;;;1.03;1.03;;;;;;;;;;4892094;29;20981;-67
2023/08/15 10:19:59;;;;;;;2.37;1.03;;;;;;;;;;4892390;28;20496;-68
2023/08/15 10:22:25;;;;;;;1.87;1.77;;;;;;;;;;4889644;28;20449;-68
2023/08/15 10:24:51;;;;;;;3.43;1.73;;;;;;;;;;4892365;29;20899;-68
2023/08/15 10:27:20;;;;;;;2.40;1.80;;;;;;;;;;4892816;29;20426;-68
2023/08/15 10:29:52;;;;;;;1.50;1.40;;;;;;;;;;4893402;28;20473;-68
2023/08/15 10:32:24;;;;;;;1.40;1.40;;;;;;;;;;4892126;28;20442;-69
2023/08/15 10:34:53;;;;;;;1.90;1.80;;;;;;;;;;4892581;28;20485;-68
2023/08/15 10:37:30;;;;;;;4.57;4.20;;;;;;;;;;4892118;28;20941;-67
2023/08/15 10:40:10;;;;;;;1.90;1.80;;;;;;;;;;4892271;28;20437;-67
2023/08/15 10:43:06;;;;;;;5.67;2.20;;;;;;;;;;4891903;28;20434;-67
2023/08/15 10:45:32;;;;;;;1.63;1.53;;;;;;;;;;4891830;28;20578;-67
2023/08/15 10:47:59;;;;;;;2.37;2.27;;;;;;;;;;4892106;29;20847;-68
2023/08/15 10:50:26;;;;;;;3.80;1.63;;;;;;;;;;4892115;28;20484;-68
2023/08/15 10:53:01;;;;;;;1.43;1.33;;;;;;;;;;4889112;29;20446;-70
2023/08/15 10:55:29;;;;;;;2.00;2.00;;;;;;;;;;4893798;28;20485;-68
2023/08/15 10:57:55;;;;;;;4.93;1.50;;;;;;;;;;4893835;28;20449;-69
2023/08/15 11:00:22;;;;;;;1.80;1.70;;;;;;;;;;4889472;28;20464;-68
2023/08/15 11:02:48;;;;;;;1.50;1.40;;;;;;;;;;4891169;29;20437;-68
2023/08/15 11:05:14;;;;;;;2.07;1.97;;;;;;;;;;4891457;28;20529;-68
2023/08/15 11:07:43;;;;;;;4.90;1.43;;;;;;;;;;4891916;29;20508;-68
2023/08/15 11:10:09;;;;;;;7.10;1.70;;;;;;;;;;4891292;28;20418;-69
2023/08/15 11:12:35;;;;;;;1.67;1.33;;;;;;;;;;4890439;28;20931;-68
2023/08/15 11:15:01;;;;;;;2.20;1.40;;;;;;;;;;4891323;28;20485;-67
2023/08/15 11:17:27;;;;;;;1.60;1.60;;;;;;;;;;4890527;28;20449;-67
2023/08/15 11:19:54;;;;;;;1.87;1.70;;;;;;;;;;4890468;28;20449;-68
2023/08/15 11:22:20;;;;;;;1.90;1.13;;;;;;;;;;4889985;28;20438;-68
2023/08/15 11:24:50;;;;;;;1.70;1.60;;;;;;;;;;4891048;28;20442;-68
2023/08/15 11:27:16;;;;;;;1.50;1.50;;;;;;;;;;4891600;28;20473;-68
2023/08/15 11:29:42;;;;;;;1.00;1.00;;;;;;;;;;4891164;28;20532;-68
2023/08/15 11:32:09;;;;;;;2.33;2.10;;;;;;;;;;4891776;29;20941;-67
2023/08/15 11:34:36;;;;;;;1.23;1.23;;;;;;;;;;4890307;29;20556;-70
2023/08/15 11:37:02;;;;;;;1.20;1.20;;;;;;;;;;4891798;28;20457;-73
2023/08/15 11:39:28;;;;;;;4.30;1.70;;;;;;;;;;4890525;28;20440;-68
2023/08/15 11:41:54;;;;;;;1.47;1.47;;;;;;;;;;4891293;29;20280;-67
2023/08/15 11:44:23;;;;;;;1.63;1.60;;;;;;;;;;4891239;28;20522;-68
2023/08/15 11:46:49;;;;;;;2.47;1.80;;;;;;;;;;4891802;28;21000;-68
2023/08/15 11:49:17;;;;;;;1.17;1.17;;;;;;;;;;4891271;28;20433;-68
2023/08/15 11:51:43;;;;;;;1.90;1.50;;;;;;;;;;4891622;28;20465;-67
2023/08/15 11:54:09;;;;;;;3.03;1.50;;;;;;;;;;4890566;28;20517;-69
2023/08/15 11:56:51;;;;;;;4.53;1.53;;;;;;;;;;4892819;28;20952;-69
2023/08/15 11:59:18;;;;;;;6.43;1.80;;;;;;;;;;4894380;28;20438;-69
2023/08/15 12:01:44;;;;;;;3.07;1.40;;;;;;;;;;4894758;28;20440;-68
2023/08/15 12:04:13;;;;;;;1.63;1.53;;;;;;;;;;4893901;28;20441;-70
2023/08/15 12:06:40;;;;;;;1.20;1.20;;;;;;;;;;4893851;29;20436;-68
2023/08/15 12:09:06;;;;;;;5.63;2.07;;;;;;;;;;4892639;28;20438;-68
2023/08/15 12:11:36;;;;;;;2.27;1.73;;;;;;;;;;4894478;28;20444;-68
2023/08/15 12:14:03;;;;;;;9.40;1.07;;;;;;;;;;4894033;28;20476;-68
2023/08/15 12:16:30;;;;;;;5.60;1.83;;;;;;;;;;4897341;28;20839;-68
2023/08/15 12:18:56;;;;;;;2.13;1.90;;;;;;;;;;4892679;28;20577;-68
2023/08/15 12:21:22;;;;;;;1.33;1.30;;;;;;;;;;4893609;28;20524;-69
2023/08/15 12:23:48;;;;;;;1.60;1.47;;;;;;;;;;4896172;28;20503;-68
2023/08/15 12:26:14;;;;;;;3.47;1.40;;;;;;;;;;4894104;29;20560;-72
2023/08/15 12:28:40;;;;;;;1.40;1.30;;;;;;;;;;4894952;28;20193;-74
2023/08/15 12:31:06;;;;;;;1.40;1.30;;;;;;;;;;4894330;28;20465;-73
2023/08/15 12:33:33;;;;;;;3.30;1.70;;;;;;;;;;4893115;28;20473;-73
2023/08/15 12:36:02;;;;;;;3.60;0.87;;;;;;;;;;4893620;28;20461;-69
2023/08/15 12:38:28;;;;;;;1.43;1.33;;;;;;;;;;4892860;28;20950;-68
2023/08/15 12:40:54;;;;;;;3.07;1.50;;;;;;;;;;4890775;28;20453;-68
2023/08/15 12:43:20;;;;;;;2.13;2.03;;;;;;;;;;4892751;29;20446;-69
2023/08/15 12:45:47;;;;;;;2.03;1.50;;;;;;;;;;4893040;29;20438;-68
2023/08/15 12:48:13;;;;;;;4.53;2.00;;;;;;;;;;4893460;28;20447;-68
2023/08/15 12:50:40;;;;;;;1.97;1.87;;;;;;;;;;4893262;28;20437;-69
2023/08/15 12:53:08;;;;;;;6.40;2.53;;;;;;;;;;4891327;28;20200;-71
2023/08/15 12:55:34;;;;;;;2.10;2.00;;;;;;;;;;4891005;29;20570;-69
2023/08/15 12:58:02;;;;;;;2.47;1.43;;;;;;;;;;4890410;28;20441;-67
2023/08/15 13:00:28;;;;;;;1.93;1.83;;;;;;;;;;4891854;28;20465;-68
2023/08/15 13:02:54;;;;;;;2.97;1.57;;;;;;;;;;4891891;28;20464;-68
2023/08/15 13:05:20;;;;;;;2.10;1.60;;;;;;;;;;4892286;28;20945;-69
2023/08/15 13:07:46;;;;;;;8.70;2.80;;;;;;;;;;4892877;29;20434;-68
2023/08/15 13:10:12;;;;;;;1.80;1.80;;;;;;;;;;4893265;29;20853;-67
2023/08/15 13:12:38;;;;;;;3.30;1.70;;;;;;;;;;4893320;28;20434;-68
2023/08/15 13:15:08;;;;;;;1.47;1.47;;;;;;;;;;4893473;28;20571;-68
2023/08/15 13:17:34;;;;;;;1.50;1.40;;;;;;;;;;4893399;28;20529;-68
2023/08/15 13:19:59;;;;;;;1.47;1.47;;;;;;;;;;4893359;28;20920;-67
2023/08/15 13:22:26;;;;;;;1.90;1.53;;;;;;;;;;4893284;28;20774;-72
2023/08/15 13:24:52;;;;;;;1.63;1.30;;;;;;;;;;4893506;28;20216;-68
2023/08/15 13:27:18;;;;;;;4.63;1.50;;;;;;;;;;4892304;28;20890;-69
2023/08/15 13:29:44;;;;;;;1.73;1.63;;;;;;;;;;4892996;28;20441;-67
2023/08/15 13:32:10;;;;;;;1.47;1.37;;;;;;;;;;4887363;28;20962;-73
2023/08/15 13:34:36;;;;;;;1.87;1.83;;;;;;;;;;4891231;28;20783;-74
2023/08/15 13:37:02;;;;;;;1.90;1.80;;;;;;;;;;4891380;28;20737;-72
2023/08/15 13:39:28;;;;;;;3.90;1.70;;;;;;;;;;4892404;28;20664;-69
2023/08/15 13:41:54;;;;;;;1.73;1.50;;;;;;;;;;4892824;28;20197;-67
2023/08/15 13:44:21;;;;;;;1.33;1.33;;;;;;;;;;4892435;28;20828;-69
2023/08/15 13:46:47;;;;;;;2.23;1.60;;;;;;;;;;4891633;28;20439;-68
2023/08/15 13:49:13;;;;;;;10.00;1.60;;;;;;;;;;4893078;29;20425;-67
2023/08/15 13:51:39;;;;;;;5.27;1.70;;;;;;;;;;4891745;28;20491;-68
2023/08/15 13:54:06;;;;;;;6.53;2.23;;;;;;;;;;4891831;28;20547;-67
2023/08/15 13:56:32;;;;;;;4.17;1.57;;;;;;;;;;4892339;28;20949;-67
2023/08/15 13:58:58;;;;;;;1.73;1.63;;;;;;;;;;4892604;29;20448;-68
2023/08/15 14:01:24;;;;;;;1.23;1.20;;;;;;;;;;4892624;28;20946;-69
2023/08/15 14:03:50;;;;;;;3.90;1.40;;;;;;;;;;4892763;28;20481;-67
2023/08/15 14:06:16;;;;;;;5.00;1.83;;;;;;;;;;4892665;29;20491;-72
2023/08/15 14:08:42;;;;;;;1.57;1.27;;;;;;;;;;4892522;28;20833;-68
2023/08/15 14:11:08;;;;;;;1.60;1.60;;;;;;;;;;4892894;28;20425;-70
2023/08/15 14:13:34;;;;;;;1.40;1.40;;;;;;;;;;4892202;29;20489;-72
2023/08/15 14:16:00;;;;;;;1.60;1.60;;;;;;;;;;4891739;28;20454;-69
2023/08/15 14:18:26;;;;;;;8.53;1.40;;;;;;;;;;4891755;29;20476;-67
2023/08/15 14:20:52;;;;;;;2.30;1.70;;;;;;;;;;4890645;29;20205;-67
2023/08/15 14:23:18;;;;;;;3.60;1.80;;;;;;;;;;4892814;28;20441;-70
2023/08/15 14:25:44;;;;;;;2.33;1.60;;;;;;;;;;4891184;28;20440;-67
2023/08/15 14:28:10;;;;;;;5.17;1.33;;;;;;;;;;4890864;28;20437;-67
2023/08/15 14:30:36;;;;;;;1.70;1.60;;;;;;;;;;4890545;28;20445;-69
2023/08/15 14:33:02;;;;;;;1.47;1.37;;;;;;;;;;4891938;28;20424;-68
2023/08/15 14:35:28;;;;;;;7.47;1.70;;;;;;;;;;4892703;28;20485;-68
2023/08/15 14:37:54;;;;;;;1.90;1.80;;;;;;;;;;4891461;28;20521;-72
2023/08/15 14:40:20;;;;;;;1.00;1.00;;;;;;;;;;4890778;28;20450;-68